Time,TemperatureF,DewpointF,PressureIn,WindDirection,WindDirectionDegrees,WindSpeedMPH,WindSpeedGustMPH,Humidity,HourlyPrecipIn,Conditions,Clouds,dailyrainin,SolarRadiationWatts/m^2,SoftwareType,DateUTC
2013-10-25 00:04:00,42.0,28.0,-100.00,West,274,4.0,11.0,58,0.00,,,0.00,0.000000,,2013-10-25 04:04:00,
2013-10-25 00:14:00,42.0,28.0,-100.00,West,274,4.0,11.0,58,0.00,,,0.00,0.000000,,2013-10-25 04:14:00,
2013-10-25 00:24:00,42.0,28.0,-100.00,West,274,4.0,11.0,58,0.00,,,0.00,0.000000,,2013-10-25 04:24:00,
2013-10-25 00:54:00,40.0,30.0,-100.00,North,4,3.0,9.0,67,0.00,,,0.00,0.000000,,2013-10-25 04:54:00,
2013-10-25 01:03:00,40.0,30.0,-100.00,North,4,3.0,9.0,67,0.00,,,0.00,0.000000,,2013-10-25 05:03:00,
2013-10-25 01:12:00,40.0,30.0,-100.00,North,4,3.0,9.0,67,0.00,,,0.00,0.000000,,2013-10-25 05:12:00,
2013-10-25 01:21:00,40.0,30.0,-100.00,North,4,3.0,9.0,67,0.00,,,0.00,0.000000,,2013-10-25 05:21:00,
2013-10-25 01:51:00,39.0,31.0,-100.00,West,277,3.0,9.0,72,0.00,,,0.00,0.000000,,2013-10-25 05:51:00,
2013-10-25 02:01:00,39.0,31.0,-100.00,West,277,3.0,9.0,72,0.00,,,0.00,0.000000,,2013-10-25 06:01:00,
2013-10-25 02:11:00,39.0,31.0,-100.00,West,277,3.0,9.0,72,0.00,,,0.00,0.000000,,2013-10-25 06:11:00,
2013-10-25 02:21:00,39.0,31.0,-100.00,West,277,3.0,9.0,72,0.00,,,0.00,0.000000,,2013-10-25 06:21:00,
2013-10-25 02:51:00,38.0,31.0,-100.00,WNW,283,3.0,8.0,77,0.00,,,0.00,0.000000,,2013-10-25 06:51:00,
2013-10-25 03:01:00,38.0,31.0,-100.00,WNW,283,3.0,8.0,77,0.00,,,0.00,0.000000,,2013-10-25 07:01:00,
2013-10-25 03:11:00,38.0,31.0,-100.00,WNW,283,3.0,8.0,77,0.00,,,0.00,0.000000,,2013-10-25 07:11:00,
2013-10-25 03:21:00,38.0,31.0,-100.00,WNW,283,3.0,8.0,77,0.00,,,0.00,0.000000,,2013-10-25 07:21:00,
2013-10-25 03:51:00,37.0,31.0,-100.00,NNW,327,3.0,9.0,80,0.00,,,0.00,0.000000,,2013-10-25 07:51:00,
2013-10-25 04:01:00,37.0,31.0,-100.00,NNW,327,3.0,9.0,80,0.00,,,0.00,0.000000,,2013-10-25 08:01:00,
2013-10-25 04:11:00,37.0,31.0,-100.00,NNW,327,3.0,9.0,80,0.00,,,0.00,0.000000,,2013-10-25 08:11:00,
2013-10-25 04:21:00,37.0,31.0,-100.00,NNW,327,3.0,9.0,80,0.00,,,0.00,0.000000,,2013-10-25 08:21:00,
2013-10-25 04:51:00,36.0,31.0,-100.00,North,2,3.0,10.0,83,0.00,,,0.00,0.000000,,2013-10-25 08:51:00,
2013-10-25 05:01:00,36.0,31.0,-100.00,North,2,3.0,10.0,83,0.00,,,0.00,0.000000,,2013-10-25 09:01:00,
2013-10-25 05:11:00,36.0,31.0,-100.00,North,2,3.0,10.0,83,0.00,,,0.00,0.000000,,2013-10-25 09:11:00,
2013-10-25 05:21:00,36.0,31.0,-100.00,North,2,3.0,10.0,83,0.00,,,0.00,0.000000,,2013-10-25 09:21:00,
2013-10-25 05:52:00,35.0,32.0,-100.00,North,4,2.0,6.0,88,0.00,,,0.00,0.000000,,2013-10-25 09:52:00,
2013-10-25 06:01:00,35.0,32.0,-100.00,North,4,2.0,6.0,88,0.00,,,0.00,0.000000,,2013-10-25 10:01:00,
2013-10-25 06:11:00,35.0,32.0,-100.00,North,4,2.0,6.0,88,0.00,,,0.00,0.000000,,2013-10-25 10:11:00,
2013-10-25 06:22:00,35.0,32.0,-100.00,North,4,2.0,6.0,88,0.00,,,0.00,0.000000,,2013-10-25 10:22:00,
2013-10-25 06:52:00,35.0,31.0,-100.00,NW,326,2.0,9.0,86,0.00,,,0.00,0.000000,,2013-10-25 10:52:00,
2013-10-25 07:02:00,35.0,31.0,-100.00,NW,326,2.0,9.0,86,0.00,,,0.00,0.000000,,2013-10-25 11:02:00,
2013-10-25 07:11:00,35.0,31.0,-100.00,NW,326,2.0,9.0,86,0.00,,,0.00,0.000000,,2013-10-25 11:11:00,
2013-10-25 07:21:00,35.0,31.0,-100.00,NW,326,2.0,9.0,86,0.00,,,0.00,0.000000,,2013-10-25 11:21:00,
2013-10-25 07:51:00,35.0,32.0,-100.00,WNW,302,3.0,9.0,87,0.00,,,0.00,3.000000,,2013-10-25 11:51:00,
2013-10-25 08:01:00,35.0,32.0,-100.00,WNW,302,3.0,9.0,87,0.00,,,0.00,3.000000,,2013-10-25 12:01:00,
2013-10-25 08:11:00,35.0,32.0,-100.00,WNW,302,3.0,9.0,87,0.00,,,0.00,3.000000,,2013-10-25 12:11:00,
2013-10-25 08:21:00,35.0,32.0,-100.00,WNW,302,3.0,9.0,87,0.00,,,0.00,3.000000,,2013-10-25 12:21:00,
2013-10-25 08:51:00,40.0,33.0,-100.00,WNW,298,4.0,8.0,75,0.00,,,0.00,80.000000,,2013-10-25 12:51:00,
2013-10-25 09:02:00,40.0,33.0,-100.00,WNW,298,4.0,8.0,75,0.00,,,0.00,80.000000,,2013-10-25 13:02:00,
2013-10-25 09:11:00,40.0,33.0,-100.00,WNW,298,4.0,8.0,75,0.00,,,0.00,80.000000,,2013-10-25 13:11:00,
2013-10-25 09:21:00,40.0,33.0,-100.00,WNW,298,4.0,8.0,75,0.00,,,0.00,80.000000,,2013-10-25 13:21:00,
2013-10-25 09:52:00,46.0,32.0,-100.00,WNW,300,5.0,12.0,57,0.00,,,0.00,285.000000,,2013-10-25 13:52:00,
2013-10-25 10:02:00,46.0,32.0,-100.00,WNW,300,5.0,12.0,57,0.00,,,0.00,285.000000,,2013-10-25 14:02:00,
2013-10-25 10:11:00,46.0,32.0,-100.00,WNW,300,5.0,12.0,57,0.00,,,0.00,285.000000,,2013-10-25 14:11:00,
2013-10-25 10:22:00,46.0,32.0,-100.00,WNW,300,5.0,12.0,57,0.00,,,0.00,285.000000,,2013-10-25 14:22:00,
2013-10-25 10:52:00,48.0,32.0,-100.00,NW,316,5.0,13.0,54,0.00,,,0.00,378.000000,,2013-10-25 14:52:00,
2013-10-25 11:01:00,48.0,32.0,-100.00,NW,316,5.0,13.0,54,0.00,,,0.00,378.000000,,2013-10-25 15:01:00,
2013-10-25 11:11:00,48.0,32.0,-100.00,NW,316,5.0,13.0,54,0.00,,,0.00,378.000000,,2013-10-25 15:11:00,
2013-10-25 11:21:00,48.0,32.0,-100.00,NW,316,5.0,13.0,54,0.00,,,0.00,378.000000,,2013-10-25 15:21:00,
2013-10-25 11:53:00,50.0,29.0,-100.00,NW,326,6.0,16.0,45,0.00,,,0.00,458.000000,,2013-10-25 15:53:00,
2013-10-25 12:03:00,50.0,29.0,-100.00,NW,326,6.0,16.0,45,0.00,,,0.00,458.000000,,2013-10-25 16:03:00,
2013-10-25 12:13:00,50.0,29.0,-100.00,NW,326,6.0,16.0,45,0.00,,,0.00,458.000000,,2013-10-25 16:13:00,
2013-10-25 12:23:00,50.0,29.0,-100.00,NW,326,6.0,16.0,45,0.00,,,0.00,458.000000,,2013-10-25 16:23:00,
2013-10-25 12:53:00,48.0,28.0,-100.00,NNW,339,6.0,14.0,46,0.00,,,0.00,297.000000,,2013-10-25 16:53:00,
2013-10-25 13:03:00,48.0,28.0,-100.00,NNW,339,6.0,14.0,46,0.00,,,0.00,297.000000,,2013-10-25 17:03:00,
2013-10-25 13:13:00,48.0,28.0,-100.00,NNW,339,6.0,14.0,46,0.00,,,0.00,297.000000,,2013-10-25 17:13:00,
2013-10-25 13:23:00,48.0,28.0,-100.00,NNW,339,6.0,14.0,46,0.00,,,0.00,297.000000,,2013-10-25 17:23:00,
2013-10-25 13:52:00,49.0,25.0,-100.00,North,356,6.0,18.0,39,0.00,,,0.00,309.000000,,2013-10-25 17:52:00,
2013-10-25 14:02:00,49.0,25.0,-100.00,North,356,6.0,18.0,39,0.00,,,0.00,309.000000,,2013-10-25 18:02:00,
2013-10-25 14:12:00,49.0,25.0,-100.00,North,356,6.0,18.0,39,0.00,,,0.00,309.000000,,2013-10-25 18:12:00,
2013-10-25 14:22:00,49.0,25.0,-100.00,North,356,6.0,18.0,39,0.00,,,0.00,309.000000,,2013-10-25 18:22:00,
2013-10-25 14:52:00,50.0,27.0,-100.00,NW,309,7.0,17.0,40,0.00,,,0.00,308.000000,,2013-10-25 18:52:00,
2013-10-25 15:02:00,50.0,27.0,-100.00,NW,309,7.0,17.0,40,0.00,,,0.00,308.000000,,2013-10-25 19:02:00,
2013-10-25 15:11:00,50.0,27.0,-100.00,NW,309,7.0,17.0,40,0.00,,,0.00,308.000000,,2013-10-25 19:11:00,
2013-10-25 15:22:00,50.0,27.0,-100.00,NW,309,7.0,17.0,40,0.00,,,0.00,308.000000,,2013-10-25 19:22:00,
2013-10-25 15:52:00,48.0,25.0,-100.00,North,359,4.0,15.0,40,0.00,,,0.00,251.000000,,2013-10-25 19:52:00,
2013-10-25 16:02:00,48.0,25.0,-100.00,North,359,4.0,15.0,40,0.00,,,0.00,251.000000,,2013-10-25 20:02:00,
2013-10-25 16:12:00,48.0,25.0,-100.00,North,359,4.0,15.0,40,0.00,,,0.00,251.000000,,2013-10-25 20:12:00,
2013-10-25 16:22:00,48.0,25.0,-100.00,North,359,4.0,15.0,40,0.00,,,0.00,251.000000,,2013-10-25 20:22:00,
2013-10-25 16:52:00,46.0,24.0,-100.00,NW,307,5.0,17.0,42,0.00,,,0.00,163.000000,,2013-10-25 20:52:00,
2013-10-25 17:02:00,46.0,24.0,-100.00,NW,307,5.0,17.0,42,0.00,,,0.00,163.000000,,2013-10-25 21:02:00,
2013-10-25 17:11:00,46.0,24.0,-100.00,NW,307,5.0,17.0,42,0.00,,,0.00,163.000000,,2013-10-25 21:11:00,
2013-10-25 17:22:00,46.0,24.0,-100.00,NW,307,5.0,17.0,42,0.00,,,0.00,163.000000,,2013-10-25 21:22:00,
2013-10-25 17:54:00,44.0,23.0,-100.00,NNW,334,6.0,13.0,43,0.00,,,0.00,58.000000,,2013-10-25 21:54:00,
2013-10-25 18:04:00,44.0,23.0,-100.00,NNW,334,6.0,13.0,43,0.00,,,0.00,58.000000,,2013-10-25 22:04:00,
2013-10-25 18:13:00,44.0,23.0,-100.00,NNW,334,6.0,13.0,43,0.00,,,0.00,58.000000,,2013-10-25 22:13:00,
2013-10-25 18:23:00,44.0,23.0,-100.00,NNW,334,6.0,13.0,43,0.00,,,0.00,58.000000,,2013-10-25 22:23:00,
2013-10-25 18:53:00,41.0,24.0,-100.00,NW,315,3.0,13.0,50,0.00,,,0.00,6.000000,,2013-10-25 22:53:00,
2013-10-25 19:03:00,41.0,24.0,-100.00,NW,315,3.0,13.0,50,0.00,,,0.00,6.000000,,2013-10-25 23:03:00,
2013-10-25 19:13:00,41.0,24.0,-100.00,NW,315,3.0,13.0,50,0.00,,,0.00,6.000000,,2013-10-25 23:13:00,
2013-10-25 19:23:00,41.0,24.0,-100.00,NW,315,3.0,13.0,50,0.00,,,0.00,6.000000,,2013-10-25 23:23:00,
2013-10-25 19:53:00,39.0,24.0,-100.00,North,4,3.0,8.0,55,0.00,,,0.00,0.000000,,2013-10-25 23:53:00,
2013-10-25 20:02:00,39.0,24.0,-100.00,North,4,3.0,8.0,55,0.00,,,0.00,0.000000,,2013-10-26 00:02:00,
2013-10-25 20:11:00,39.0,24.0,-100.00,North,4,3.0,8.0,55,0.00,,,0.00,0.000000,,2013-10-26 00:11:00,
2013-10-25 20:22:00,39.0,24.0,-100.00,North,4,3.0,8.0,55,0.00,,,0.00,0.000000,,2013-10-26 00:22:00,
2013-10-25 20:52:00,37.0,24.0,-100.00,North,5,2.0,7.0,59,0.00,,,0.00,0.000000,,2013-10-26 00:52:00,
2013-10-25 21:01:00,37.0,24.0,-100.00,North,5,2.0,7.0,59,0.00,,,0.00,0.000000,,2013-10-26 01:01:00,
2013-10-25 21:12:00,37.0,24.0,-100.00,North,5,2.0,7.0,59,0.00,,,0.00,0.000000,,2013-10-26 01:12:00,
2013-10-25 21:22:00,37.0,24.0,-100.00,North,5,2.0,7.0,59,0.00,,,0.00,0.000000,,2013-10-26 01:22:00,
2013-10-25 21:52:00,35.0,24.0,-100.00,North,2,2.0,4.0,63,0.00,,,0.00,0.000000,,2013-10-26 01:52:00,
2013-10-25 22:02:00,35.0,24.0,-100.00,North,2,2.0,4.0,63,0.00,,,0.00,0.000000,,2013-10-26 02:02:00,
2013-10-25 22:12:00,35.0,24.0,-100.00,North,2,2.0,4.0,63,0.00,,,0.00,0.000000,,2013-10-26 02:12:00,
2013-10-25 22:22:00,35.0,24.0,-100.00,North,2,2.0,4.0,63,0.00,,,0.00,0.000000,,2013-10-26 02:22:00,
2013-10-25 22:52:00,33.0,24.0,-100.00,North,2,0.0,4.0,70,0.00,,,0.00,0.000000,,2013-10-26 02:52:00,
2013-10-25 23:02:00,33.0,24.0,-100.00,North,2,0.0,4.0,70,0.00,,,0.00,0.000000,,2013-10-26 03:02:00,
2013-10-25 23:12:00,33.0,24.0,-100.00,North,2,0.0,4.0,70,0.00,,,0.00,0.000000,,2013-10-26 03:12:00,
2013-10-25 23:22:00,33.0,24.0,-100.00,North,2,0.0,4.0,70,0.00,,,0.00,0.000000,,2013-10-26 03:22:00,
2013-10-25 23:54:00,31.0,25.0,-100.00,North,2,1.0,4.0,77,0.00,,,0.00,0.000000,,2013-10-26 03:54:00,